DLH576L LIML-LFPG
Flight info
| Callsign | DLH576L |
|---|---|
| Flight time | 1h 7m |
| Altitude | 30000 |
| Route | ARLES DCT PUNSA DCT UNKIR DCT GIVRI DCT TINIL |
| Aircraft | CRJX/M-SDFGIRWY/S |
Departure
| Time | 2026-05-05 14:02 |
|---|---|
| Airport | Milano Linate Airport (LIML) |
Arrival
| Time | 2026-05-05 15:10 |
|---|---|
| Airport | Charles de Gaulle International Airport (LFPG) |
| Time | Latitude | Longitude | Altitude | Speed | Heading |
|---|---|---|---|---|---|
| 2026-05-05 13:48 | 45.45385 | 9.28069 | 357 ft | 0 kts | 270° |
| 2026-05-05 13:52 | 45.45385 | 9.28070 | 357 ft | 0 kts | 270° |
| 2026-05-05 13:56 | 45.45385 | 9.28068 | 357 ft | 1 kts | 270° |
| 2026-05-05 13:56 | 45.45385 | 9.28036 | 357 ft | 5 kts | 269° |
| 2026-05-05 13:56 | 45.45373 | 9.27980 | 363 ft | 9 kts | 232° |
| 2026-05-05 13:56 | 45.45288 | 9.27907 | 361 ft | 20 kts | 204° |
| 2026-05-05 13:57 | 45.45151 | 9.27874 | 358 ft | 20 kts | 174° |
| 2026-05-05 13:57 | 45.45013 | 9.27889 | 355 ft | 20 kts | 175° |
| 2026-05-05 13:57 | 45.44877 | 9.27928 | 361 ft | 20 kts | 166° |
| 2026-05-05 13:57 | 45.44741 | 9.27949 | 358 ft | 20 kts | 176° |
| 2026-05-05 13:58 | 45.44594 | 9.27966 | 355 ft | 23 kts | 175° |
| 2026-05-05 13:58 | 45.44425 | 9.27978 | 352 ft | 25 kts | 180° |
| 2026-05-05 13:58 | 45.44240 | 9.28001 | 355 ft | 28 kts | 174° |
| 2026-05-05 13:58 | 45.44043 | 9.28027 | 356 ft | 30 kts | 174° |
| 2026-05-05 13:59 | 45.43608 | 9.28074 | 351 ft | 31 kts | 175° |
| 2026-05-05 13:59 | 45.43451 | 9.28021 | 348 ft | 11 kts | 254° |
| 2026-05-05 14:00 | 45.43446 | 9.27970 | 348 ft | 0 kts | 264° |
| 2026-05-05 14:00 | 45.43445 | 9.27966 | 345 ft | 3 kts | 264° |
| 2026-05-05 14:01 | 45.43443 | 9.27903 | 347 ft | 10 kts | 271° |
| 2026-05-05 14:01 | 45.43479 | 9.27827 | 347 ft | 10 kts | 336° |
| 2026-05-05 14:01 | 45.43553 | 9.27812 | 346 ft | 17 kts | 356° |
| 2026-05-05 14:01 | 45.43900 | 9.27774 | 352 ft | 86 kts | 355° |
| 2026-05-05 14:02 | 45.44710 | 9.27686 | 359 ft | 145 kts | 355° |
| 2026-05-05 14:02 | 45.45844 | 9.27562 | 627 ft | 169 kts | 359° |
| 2026-05-05 14:02 | 45.47026 | 9.27358 | 1294 ft | 182 kts | 347° |
| 2026-05-05 14:02 | 45.48265 | 9.26637 | 2035 ft | 189 kts | 335° |
| 2026-05-05 14:03 | 45.49410 | 9.25739 | 2883 ft | 197 kts | 333° |
| 2026-05-05 14:03 | 45.50780 | 9.24790 | 3291 ft | 228 kts | 341° |
| 2026-05-05 14:03 | 45.52392 | 9.24086 | 3800 ft | 252 kts | 347° |
| 2026-05-05 14:03 | 45.54160 | 9.23469 | 4525 ft | 268 kts | 347° |
| 2026-05-05 14:04 | 45.55993 | 9.22744 | 5288 ft | 276 kts | 343° |
| 2026-05-05 14:04 | 45.57836 | 9.21911 | 6127 ft | 279 kts | 340° |
| 2026-05-05 14:04 | 45.59657 | 9.20862 | 6905 ft | 282 kts | 326° |
| 2026-05-05 14:04 | 45.60966 | 9.18734 | 7669 ft | 279 kts | 290° |
| 2026-05-05 14:05 | 45.61302 | 9.16013 | 8448 ft | 276 kts | 271° |
| 2026-05-05 14:05 | 45.61692 | 9.13330 | 9234 ft | 281 kts | 290° |
| 2026-05-05 14:05 | 45.62666 | 9.10767 | 10025 ft | 285 kts | 298° |
| 2026-05-05 14:05 | 45.63705 | 9.08357 | 10363 ft | 302 kts | 297° |
| 2026-05-05 14:06 | 45.64511 | 9.05508 | 10671 ft | 312 kts | 277° |
| 2026-05-05 14:06 | 45.64677 | 9.03823 | 10966 ft | 315 kts | 274° |
| 2026-05-05 14:06 | 45.65229 | 9.00688 | 11625 ft | 322 kts | 291° |
| 2026-05-05 14:06 | 45.66324 | 8.97867 | 12325 ft | 328 kts | 298° |
| 2026-05-05 14:07 | 45.67582 | 8.95127 | 13019 ft | 331 kts | 300° |
| 2026-05-05 14:07 | 45.68880 | 8.92380 | 13690 ft | 335 kts | 300° |
| 2026-05-05 14:07 | 45.70182 | 8.89603 | 14297 ft | 337 kts | 299° |
| 2026-05-05 14:07 | 45.71214 | 8.87325 | 14787 ft | 339 kts | 298° |
| 2026-05-05 14:08 | 45.72477 | 8.84463 | 15365 ft | 341 kts | 297° |
| 2026-05-05 14:08 | 45.73750 | 8.81576 | 15954 ft | 344 kts | 297° |
| 2026-05-05 14:08 | 45.75033 | 8.78669 | 16526 ft | 347 kts | 297° |
| 2026-05-05 14:08 | 45.76368 | 8.75637 | 17124 ft | 349 kts | 297° |
| 2026-05-05 14:09 | 45.77658 | 8.72710 | 17717 ft | 352 kts | 297° |
| 2026-05-05 14:09 | 45.78971 | 8.69724 | 18239 ft | 355 kts | 296° |
| 2026-05-05 14:09 | 45.80292 | 8.66717 | 18705 ft | 358 kts | 296° |
| 2026-05-05 14:09 | 45.81618 | 8.63689 | 19148 ft | 360 kts | 296° |
| 2026-05-05 14:10 | 45.82958 | 8.60635 | 19583 ft | 363 kts | 297° |
| 2026-05-05 14:10 | 45.84305 | 8.57565 | 20005 ft | 365 kts | 296° |
| 2026-05-05 14:10 | 45.85639 | 8.54453 | 20419 ft | 367 kts | 296° |
| 2026-05-05 14:10 | 45.86966 | 8.51389 | 20814 ft | 370 kts | 296° |
| 2026-05-05 14:11 | 45.88339 | 8.48239 | 21216 ft | 373 kts | 296° |
| 2026-05-05 14:11 | 45.89714 | 8.45057 | 21557 ft | 377 kts | 297° |
| 2026-05-05 14:11 | 45.90731 | 8.42718 | 21878 ft | 378 kts | 297° |
| 2026-05-05 14:11 | 45.91956 | 8.39902 | 22213 ft | 380 kts | 296° |
| 2026-05-05 14:12 | 45.93353 | 8.36669 | 22615 ft | 382 kts | 296° |
| 2026-05-05 14:12 | 45.94746 | 8.33408 | 23012 ft | 384 kts | 296° |
| 2026-05-05 14:12 | 45.96006 | 8.30472 | 23316 ft | 386 kts | 296° |
| 2026-05-05 14:12 | 45.97398 | 8.27219 | 23617 ft | 389 kts | 296° |
| 2026-05-05 14:13 | 45.98830 | 8.23881 | 23921 ft | 390 kts | 296° |
| 2026-05-05 14:13 | 46.00249 | 8.20557 | 24247 ft | 391 kts | 296° |
| 2026-05-05 14:13 | 46.01674 | 8.17220 | 24571 ft | 392 kts | 296° |
| 2026-05-05 14:13 | 46.03123 | 8.13823 | 24848 ft | 394 kts | 296° |
| 2026-05-05 14:14 | 46.04556 | 8.10466 | 25204 ft | 394 kts | 296° |
| 2026-05-05 14:14 | 46.05991 | 8.07108 | 25532 ft | 395 kts | 295° |
| 2026-05-05 14:14 | 46.07427 | 8.03736 | 25823 ft | 395 kts | 295° |
| 2026-05-05 14:14 | 46.08765 | 8.00284 | 26048 ft | 393 kts | 291° |
| 2026-05-05 14:15 | 46.09946 | 7.96682 | 26216 ft | 392 kts | 288° |
| 2026-05-05 14:15 | 46.11094 | 7.93040 | 26428 ft | 395 kts | 288° |
| 2026-05-05 14:15 | 46.12234 | 7.89443 | 26689 ft | 395 kts | 289° |
| 2026-05-05 14:15 | 46.13430 | 7.85799 | 26898 ft | 397 kts | 290° |
| 2026-05-05 14:16 | 46.14623 | 7.82202 | 27060 ft | 400 kts | 290° |
| 2026-05-05 14:16 | 46.15825 | 7.78591 | 27328 ft | 399 kts | 290° |
| 2026-05-05 14:16 | 46.17025 | 7.74974 | 27572 ft | 400 kts | 289° |
| 2026-05-05 14:16 | 46.18230 | 7.71344 | 27797 ft | 402 kts | 289° |
| 2026-05-05 14:17 | 46.19448 | 7.67651 | 27980 ft | 403 kts | 289° |
| 2026-05-05 14:17 | 46.20656 | 7.63998 | 28207 ft | 404 kts | 289° |
| 2026-05-05 14:17 | 46.21863 | 7.60332 | 28403 ft | 405 kts | 289° |
| 2026-05-05 14:17 | 46.23078 | 7.56644 | 28606 ft | 407 kts | 289° |
| 2026-05-05 14:18 | 46.24294 | 7.52947 | 28767 ft | 409 kts | 290° |
| 2026-05-05 14:18 | 46.25516 | 7.49231 | 28924 ft | 410 kts | 289° |
| 2026-05-05 14:18 | 46.26756 | 7.45455 | 29112 ft | 411 kts | 289° |
| 2026-05-05 14:18 | 46.27979 | 7.41708 | 29266 ft | 413 kts | 289° |
| 2026-05-05 14:19 | 46.30214 | 7.34866 | 29491 ft | 417 kts | 290° |
| 2026-05-05 14:19 | 46.31420 | 7.31176 | 29714 ft | 417 kts | 290° |
| 2026-05-05 14:19 | 46.32654 | 7.27381 | 29815 ft | 420 kts | 290° |
| 2026-05-05 14:20 | 46.35213 | 7.19518 | 29861 ft | 427 kts | 290° |
| 2026-05-05 14:20 | 46.37724 | 7.11753 | 29896 ft | 429 kts | 290° |
| 2026-05-05 14:21 | 46.40254 | 7.03919 | 29886 ft | 430 kts | 290° |
| 2026-05-05 14:21 | 46.42790 | 6.96054 | 29889 ft | 431 kts | 290° |
| 2026-05-05 14:22 | 46.44908 | 6.89445 | 29893 ft | 431 kts | 290° |
| 2026-05-05 14:22 | 46.47436 | 6.81553 | 29888 ft | 432 kts | 290° |
| 2026-05-05 14:23 | 46.49963 | 6.73629 | 29891 ft | 433 kts | 290° |
| 2026-05-05 14:23 | 46.52494 | 6.65677 | 29882 ft | 434 kts | 290° |
| 2026-05-05 14:24 | 46.55019 | 6.57719 | 29880 ft | 435 kts | 290° |
| 2026-05-05 14:24 | 46.57544 | 6.49739 | 29869 ft | 435 kts | 290° |
| 2026-05-05 14:25 | 46.60063 | 6.41741 | 29868 ft | 435 kts | 290° |
| 2026-05-05 14:25 | 46.62581 | 6.33743 | 29863 ft | 435 kts | 290° |
| 2026-05-05 14:26 | 46.65103 | 6.25680 | 29857 ft | 435 kts | 290° |
| 2026-05-05 14:26 | 46.67609 | 6.17659 | 29870 ft | 435 kts | 290° |
| 2026-05-05 14:27 | 46.70112 | 6.09617 | 29863 ft | 436 kts | 290° |
| 2026-05-05 14:27 | 46.72610 | 6.01570 | 29855 ft | 436 kts | 290° |
| 2026-05-05 14:28 | 46.75143 | 5.93377 | 29868 ft | 437 kts | 291° |
| 2026-05-05 14:28 | 46.77627 | 5.85320 | 29863 ft | 438 kts | 290° |
| 2026-05-05 14:29 | 46.80159 | 5.77240 | 29848 ft | 440 kts | 296° |
| 2026-05-05 14:29 | 46.82048 | 5.73683 | 29853 ft | 447 kts | 314° |
| 2026-05-05 14:29 | 46.84410 | 5.70729 | 29878 ft | 449 kts | 319° |
| 2026-05-05 14:30 | 46.89712 | 5.65833 | 29864 ft | 454 kts | 331° |
| 2026-05-05 14:30 | 46.95361 | 5.61676 | 29890 ft | 456 kts | 330° |
| 2026-05-05 14:31 | 47.00925 | 5.57197 | 29854 ft | 457 kts | 329° |
| 2026-05-05 14:31 | 47.06501 | 5.52702 | 29850 ft | 457 kts | 329° |
| 2026-05-05 14:32 | 47.12076 | 5.48197 | 29855 ft | 458 kts | 329° |
| 2026-05-05 14:32 | 47.17705 | 5.43630 | 29849 ft | 459 kts | 329° |
| 2026-05-05 14:33 | 47.23258 | 5.39116 | 29847 ft | 459 kts | 330° |
| 2026-05-05 14:33 | 47.28894 | 5.34536 | 29845 ft | 460 kts | 330° |
| 2026-05-05 14:34 | 47.34493 | 5.29960 | 29853 ft | 461 kts | 330° |
| 2026-05-05 14:34 | 47.40104 | 5.25372 | 29847 ft | 461 kts | 330° |
| 2026-05-05 14:35 | 47.45721 | 5.20770 | 29847 ft | 462 kts | 330° |
| 2026-05-05 14:35 | 47.51354 | 5.16141 | 29832 ft | 463 kts | 330° |
| 2026-05-05 14:36 | 47.56983 | 5.11512 | 29824 ft | 463 kts | 330° |
| 2026-05-05 14:36 | 47.62249 | 5.06050 | 29819 ft | 462 kts | 317° |
| 2026-05-05 14:37 | 47.67084 | 4.99539 | 29647 ft | 466 kts | 317° |
| 2026-05-05 14:37 | 47.69561 | 4.96351 | 28980 ft | 479 kts | 319° |
| 2026-05-05 14:37 | 47.72118 | 4.93173 | 28342 ft | 478 kts | 319° |
| 2026-05-05 14:38 | 47.74683 | 4.89964 | 28048 ft | 469 kts | 319° |
| 2026-05-05 14:38 | 47.77149 | 4.86893 | 27891 ft | 460 kts | 319° |
| 2026-05-05 14:38 | 47.79583 | 4.83841 | 27544 ft | 456 kts | 319° |
| 2026-05-05 14:38 | 47.81987 | 4.80787 | 27187 ft | 452 kts | 318° |
| 2026-05-05 14:39 | 47.84398 | 4.77705 | 26845 ft | 449 kts | 318° |
| 2026-05-05 14:39 | 47.86758 | 4.74689 | 26515 ft | 446 kts | 318° |
| 2026-05-05 14:39 | 47.89112 | 4.71687 | 26186 ft | 445 kts | 318° |
| 2026-05-05 14:39 | 47.91491 | 4.68658 | 25858 ft | 443 kts | 318° |
| 2026-05-05 14:40 | 47.93842 | 4.65658 | 25549 ft | 441 kts | 318° |
| 2026-05-05 14:40 | 47.96170 | 4.62681 | 25231 ft | 440 kts | 318° |
| 2026-05-05 14:40 | 47.98510 | 4.59682 | 24934 ft | 438 kts | 318° |
| 2026-05-05 14:40 | 48.00847 | 4.56683 | 24606 ft | 438 kts | 318° |
| 2026-05-05 14:41 | 48.03158 | 4.53717 | 24252 ft | 439 kts | 318° |
| 2026-05-05 14:41 | 48.05471 | 4.50746 | 23896 ft | 440 kts | 318° |
| 2026-05-05 14:41 | 48.07823 | 4.47718 | 23547 ft | 440 kts | 318° |
| 2026-05-05 14:41 | 48.10165 | 4.44700 | 23172 ft | 441 kts | 318° |
| 2026-05-05 14:42 | 48.12472 | 4.41723 | 22764 ft | 441 kts | 318° |
| 2026-05-05 14:42 | 48.14793 | 4.38727 | 22361 ft | 441 kts | 318° |
| 2026-05-05 14:42 | 48.17115 | 4.35722 | 21963 ft | 441 kts | 318° |
| 2026-05-05 14:42 | 48.19432 | 4.32723 | 21573 ft | 440 kts | 318° |
| 2026-05-05 14:43 | 48.21748 | 4.29717 | 21221 ft | 440 kts | 318° |
| 2026-05-05 14:43 | 48.24068 | 4.26704 | 20900 ft | 441 kts | 318° |
| 2026-05-05 14:43 | 48.25609 | 4.24701 | 20649 ft | 439 kts | 317° |
| 2026-05-05 14:43 | 48.27784 | 4.21449 | 20251 ft | 429 kts | 309° |
| 2026-05-05 14:44 | 48.29663 | 4.17976 | 19878 ft | 420 kts | 306° |
| 2026-05-05 14:44 | 48.31418 | 4.14563 | 19502 ft | 412 kts | 306° |
| 2026-05-05 14:44 | 48.33173 | 4.11187 | 19132 ft | 405 kts | 306° |
| 2026-05-05 14:44 | 48.34950 | 4.07883 | 18763 ft | 398 kts | 307° |
| 2026-05-05 14:45 | 48.36720 | 4.04664 | 18399 ft | 393 kts | 307° |
| 2026-05-05 14:45 | 48.38512 | 4.01391 | 18030 ft | 388 kts | 307° |
| 2026-05-05 14:45 | 48.40182 | 3.98327 | 17632 ft | 384 kts | 307° |
| 2026-05-05 14:45 | 48.41720 | 3.95502 | 17253 ft | 381 kts | 307° |
| 2026-05-05 14:46 | 48.43407 | 3.92403 | 16849 ft | 377 kts | 307° |
| 2026-05-05 14:46 | 48.45067 | 3.89356 | 16480 ft | 374 kts | 307° |
| 2026-05-05 14:46 | 48.46734 | 3.86288 | 16165 ft | 373 kts | 307° |
| 2026-05-05 14:46 | 48.48392 | 3.83240 | 15859 ft | 371 kts | 307° |
| 2026-05-05 14:47 | 48.50024 | 3.80226 | 15557 ft | 370 kts | 307° |
| 2026-05-05 14:47 | 48.51701 | 3.77135 | 15244 ft | 370 kts | 307° |
| 2026-05-05 14:47 | 48.53303 | 3.74170 | 14953 ft | 370 kts | 307° |
| 2026-05-05 14:47 | 48.54930 | 3.70979 | 14643 ft | 369 kts | 303° |
| 2026-05-05 14:48 | 48.56317 | 3.67822 | 14366 ft | 368 kts | 300° |
| 2026-05-05 14:48 | 48.57659 | 3.64568 | 14087 ft | 367 kts | 300° |
| 2026-05-05 14:48 | 48.58956 | 3.61416 | 13930 ft | 364 kts | 300° |
| 2026-05-05 14:48 | 48.60285 | 3.58223 | 13876 ft | 357 kts | 300° |
| 2026-05-05 14:49 | 48.61628 | 3.55062 | 13876 ft | 352 kts | 301° |
| 2026-05-05 14:49 | 48.62962 | 3.51966 | 13880 ft | 353 kts | 301° |
| 2026-05-05 14:49 | 48.64310 | 3.48807 | 13875 ft | 353 kts | 301° |
| 2026-05-05 14:49 | 48.65643 | 3.45691 | 13881 ft | 353 kts | 301° |
| 2026-05-05 14:50 | 48.66976 | 3.42570 | 13889 ft | 353 kts | 301° |
| 2026-05-05 14:50 | 48.68105 | 3.39920 | 13886 ft | 353 kts | 301° |
| 2026-05-05 14:50 | 48.69300 | 3.37121 | 13881 ft | 351 kts | 301° |
| 2026-05-05 14:50 | 48.70620 | 3.34015 | 13270 ft | 349 kts | 301° |
| 2026-05-05 14:51 | 48.71867 | 3.31082 | 12920 ft | 340 kts | 301° |
| 2026-05-05 14:51 | 48.72998 | 3.28414 | 12796 ft | 328 kts | 301° |
| 2026-05-05 14:51 | 48.74214 | 3.25560 | 12643 ft | 315 kts | 301° |
| 2026-05-05 14:51 | 48.75403 | 3.22750 | 12341 ft | 309 kts | 302° |
| 2026-05-05 14:52 | 48.76554 | 3.20031 | 11941 ft | 307 kts | 302° |
| 2026-05-05 14:52 | 48.77713 | 3.17291 | 11572 ft | 306 kts | 302° |
| 2026-05-05 14:52 | 48.78872 | 3.14547 | 11243 ft | 305 kts | 303° |
| 2026-05-05 14:52 | 48.79972 | 3.11943 | 10918 ft | 303 kts | 303° |
| 2026-05-05 14:53 | 48.81132 | 3.09209 | 10584 ft | 302 kts | 303° |
| 2026-05-05 14:53 | 48.82266 | 3.06513 | 10247 ft | 299 kts | 303° |
| 2026-05-05 14:53 | 48.83385 | 3.03853 | 9909 ft | 297 kts | 303° |
| 2026-05-05 14:53 | 48.84115 | 3.02110 | 9667 ft | 296 kts | 304° |
| 2026-05-05 14:54 | 48.85326 | 2.99613 | 9293 ft | 293 kts | 313° |
| 2026-05-05 14:54 | 48.86712 | 2.97352 | 8906 ft | 290 kts | 316° |
| 2026-05-05 14:54 | 48.87283 | 2.96457 | 8747 ft | 289 kts | 316° |
| 2026-05-05 14:54 | 48.88685 | 2.94268 | 8349 ft | 287 kts | 316° |
| 2026-05-05 14:55 | 48.90081 | 2.92077 | 7919 ft | 286 kts | 316° |
| 2026-05-05 14:55 | 48.91434 | 2.89897 | 7498 ft | 284 kts | 315° |
| 2026-05-05 14:55 | 48.92771 | 2.87682 | 7236 ft | 278 kts | 314° |
| 2026-05-05 14:55 | 48.93629 | 2.85538 | 7117 ft | 273 kts | 288° |
| 2026-05-05 14:56 | 48.93791 | 2.82700 | 7057 ft | 267 kts | 268° |
| 2026-05-05 14:56 | 48.93621 | 2.79915 | 7033 ft | 264 kts | 264° |
| 2026-05-05 14:56 | 48.93389 | 2.77111 | 7056 ft | 267 kts | 263° |
| 2026-05-05 14:56 | 48.93161 | 2.74254 | 7098 ft | 272 kts | 264° |
| 2026-05-05 14:57 | 48.92970 | 2.71347 | 7086 ft | 276 kts | 266° |
| 2026-05-05 14:57 | 48.92793 | 2.68463 | 7079 ft | 278 kts | 265° |
| 2026-05-05 14:57 | 48.92636 | 2.65513 | 7043 ft | 280 kts | 267° |
| 2026-05-05 14:57 | 48.92507 | 2.62539 | 7022 ft | 276 kts | 267° |
| 2026-05-05 14:58 | 48.92374 | 2.59656 | 7032 ft | 271 kts | 267° |
| 2026-05-05 14:58 | 48.92235 | 2.56770 | 7060 ft | 267 kts | 267° |
| 2026-05-05 14:58 | 48.92087 | 2.54000 | 7128 ft | 262 kts | 267° |
| 2026-05-05 14:58 | 48.91944 | 2.51215 | 7165 ft | 267 kts | 267° |
| 2026-05-05 14:59 | 48.91796 | 2.48351 | 7150 ft | 270 kts | 266° |
| 2026-05-05 14:59 | 48.91643 | 2.45505 | 7106 ft | 270 kts | 266° |
| 2026-05-05 14:59 | 48.91483 | 2.42671 | 7085 ft | 268 kts | 266° |
| 2026-05-05 14:59 | 48.91315 | 2.39851 | 7073 ft | 264 kts | 266° |
| 2026-05-05 15:00 | 48.91154 | 2.37157 | 7114 ft | 261 kts | 266° |
| 2026-05-05 15:00 | 48.91044 | 2.35314 | 7161 ft | 256 kts | 266° |
| 2026-05-05 15:00 | 48.90830 | 2.31713 | 6933 ft | 254 kts | 266° |
| 2026-05-05 15:00 | 48.90679 | 2.29047 | 6744 ft | 253 kts | 266° |
| 2026-05-05 15:01 | 48.90519 | 2.26379 | 6526 ft | 254 kts | 266° |
| 2026-05-05 15:01 | 48.90366 | 2.23694 | 6322 ft | 253 kts | 266° |
| 2026-05-05 15:01 | 48.90219 | 2.20814 | 6066 ft | 250 kts | 267° |
| 2026-05-05 15:01 | 48.90085 | 2.18358 | 5762 ft | 250 kts | 267° |
| 2026-05-05 15:02 | 48.89934 | 2.15741 | 5414 ft | 249 kts | 267° |
| 2026-05-05 15:02 | 48.90066 | 2.13173 | 5024 ft | 243 kts | 295° |
| 2026-05-05 15:02 | 48.91109 | 2.11292 | 4687 ft | 233 kts | 335° |
| 2026-05-05 15:02 | 48.92641 | 2.10785 | 4554 ft | 224 kts | 1° |
| 2026-05-05 15:03 | 48.94201 | 2.10785 | 4401 ft | 224 kts | 7° |
| 2026-05-05 15:03 | 48.95621 | 2.11692 | 4297 ft | 221 kts | 41° |
| 2026-05-05 15:03 | 48.96737 | 2.13246 | 4223 ft | 218 kts | 41° |
| 2026-05-05 15:03 | 48.97886 | 2.14715 | 4079 ft | 211 kts | 38° |
| 2026-05-05 15:04 | 48.99030 | 2.15994 | 4027 ft | 198 kts | 35° |
| 2026-05-05 15:04 | 49.00105 | 2.17195 | 3967 ft | 186 kts | 45° |
| 2026-05-05 15:04 | 49.00616 | 2.18962 | 4016 ft | 186 kts | 78° |
| 2026-05-05 15:04 | 49.00799 | 2.20922 | 4011 ft | 188 kts | 81° |
| 2026-05-05 15:05 | 49.00997 | 2.24881 | 4014 ft | 184 kts | 83° |
| 2026-05-05 15:05 | 49.01076 | 2.26838 | 3790 ft | 185 kts | 83° |
| 2026-05-05 15:05 | 49.01176 | 2.28762 | 3515 ft | 173 kts | 82° |
| 2026-05-05 15:06 | 49.01266 | 2.30505 | 3277 ft | 160 kts | 81° |
| 2026-05-05 15:06 | 49.01371 | 2.32217 | 3089 ft | 160 kts | 81° |
| 2026-05-05 15:06 | 49.01473 | 2.33867 | 2883 ft | 160 kts | 81° |
| 2026-05-05 15:06 | 49.01557 | 2.35556 | 2591 ft | 155 kts | 80° |
| 2026-05-05 15:07 | 49.01647 | 2.37179 | 2379 ft | 153 kts | 80° |
| 2026-05-05 15:07 | 49.01744 | 2.38836 | 2172 ft | 154 kts | 80° |
| 2026-05-05 15:07 | 49.01830 | 2.40465 | 1987 ft | 156 kts | 81° |
| 2026-05-05 15:07 | 49.01910 | 2.42109 | 1805 ft | 156 kts | 80° |
| 2026-05-05 15:08 | 49.01980 | 2.43603 | 1632 ft | 154 kts | 78° |
| 2026-05-05 15:08 | 49.02075 | 2.45244 | 1405 ft | 150 kts | 79° |
| 2026-05-05 15:08 | 49.02164 | 2.46695 | 1209 ft | 142 kts | 79° |
| 2026-05-05 15:08 | 49.02257 | 2.48178 | 985 ft | 142 kts | 80° |
| 2026-05-05 15:09 | 49.02331 | 2.49585 | 790 ft | 143 kts | 81° |
| 2026-05-05 15:09 | 49.02381 | 2.50600 | 670 ft | 143 kts | 83° |
| 2026-05-05 15:09 | 49.02442 | 2.52148 | 419 ft | 149 kts | 79° |
| 2026-05-05 15:09 | 49.02532 | 2.53565 | 354 ft | 111 kts | 85° |
| 2026-05-05 15:10 | 49.02566 | 2.54434 | 357 ft | 40 kts | 100° |
| 2026-05-05 15:10 | 49.02505 | 2.54792 | 359 ft | 31 kts | 105° |
| 2026-05-05 15:10 | 49.02465 | 2.54998 | 354 ft | 7 kts | 117° |
| 2026-05-05 15:10 | 49.02459 | 2.55010 | 358 ft | 0 kts | 140° |
| 2026-05-05 15:11 | 49.02431 | 2.55027 | 355 ft | 11 kts | 167° |
| 2026-05-05 15:11 | 49.02347 | 2.55036 | 352 ft | 10 kts | 182° |
| 2026-05-05 15:11 | 49.02258 | 2.55043 | 354 ft | 17 kts | 175° |
| 2026-05-05 15:11 | 49.02122 | 2.55058 | 353 ft | 23 kts | 177° |
| 2026-05-05 15:12 | 49.01955 | 2.55086 | 359 ft | 23 kts | 167° |
| 2026-05-05 15:12 | 49.01880 | 2.55046 | 361 ft | 7 kts | 235° |
| 2026-05-05 15:12 | 49.01857 | 2.54953 | 356 ft | 12 kts | 259° |
| 2026-05-05 15:12 | 49.01845 | 2.54788 | 360 ft | 19 kts | 264° |
| 2026-05-05 15:13 | 49.01833 | 2.54574 | 353 ft | 19 kts | 267° |
| 2026-05-05 15:13 | 49.01825 | 2.54400 | 353 ft | 14 kts | 265° |
| 2026-05-05 15:13 | 49.01820 | 2.54276 | 355 ft | 9 kts | 271° |
| 2026-05-05 15:13 | 49.01815 | 2.54202 | 359 ft | 5 kts | 257° |
| 2026-05-05 15:14 | 49.01794 | 2.54157 | 360 ft | 7 kts | 218° |
| 2026-05-05 15:14 | 49.01744 | 2.54117 | 357 ft | 9 kts | 208° |
| 2026-05-05 15:14 | 49.01718 | 2.54096 | 358 ft | 0 kts | 209° |